sensor_id;sensor_type;location;lat;lon;timestamp;temperature;humidity
12948;DHT22;6539;49.476;8.484;2023-07-09T00:01:36;24.80;99.90
12948;DHT22;6539;49.476;8.484;2023-07-09T00:04:22;24.90;99.90
12948;DHT22;6539;49.476;8.484;2023-07-09T00:07:31;24.90;99.90
12948;DHT22;6539;49.476;8.484;2023-07-09T00:10:19;25.00;99.90
12948;DHT22;6539;49.476;8.484;2023-07-09T00:13:07;25.00;99.90
12948;DHT22;6539;49.476;8.484;2023-07-09T00:15:58;24.90;99.90
12948;DHT22;6539;49.476;8.484;2023-07-09T00:18:46;24.90;99.90
12948;DHT22;6539;49.476;8.484;2023-07-09T00:21:34;24.90;99.90
12948;DHT22;6539;49.476;8.484;2023-07-09T00:24:23;24.70;99.90
12948;DHT22;6539;49.476;8.484;2023-07-09T00:27:11;24.70;99.90
12948;DHT22;6539;49.476;8.484;2023-07-09T00:29:57;24.60;99.90
12948;DHT22;6539;49.476;8.484;2023-07-09T00:32:44;24.70;99.90
12948;DHT22;6539;49.476;8.484;2023-07-09T00:35:30;24.70;99.90
12948;DHT22;6539;49.476;8.484;2023-07-09T00:38:20;24.70;99.90
12948;DHT22;6539;49.476;8.484;2023-07-09T00:41:15;24.60;99.90
12948;DHT22;6539;49.476;8.484;2023-07-09T00:47:37;24.40;99.90
12948;DHT22;6539;49.476;8.484;2023-07-09T00:53:25;24.30;99.90
12948;DHT22;6539;49.476;8.484;2023-07-09T00:56:36;24.30;99.90
12948;DHT22;6539;49.476;8.484;2023-07-09T00:59:27;24.30;99.90
12948;DHT22;6539;49.476;8.484;2023-07-09T01:02:19;24.20;99.90
12948;DHT22;6539;49.476;8.484;2023-07-09T01:05:09;24.10;99.90
12948;DHT22;6539;49.476;8.484;2023-07-09T01:07:59;24.00;99.90
12948;DHT22;6539;49.476;8.484;2023-07-09T01:10:45;23.90;99.90
12948;DHT22;6539;49.476;8.484;2023-07-09T01:13:31;23.80;99.90
12948;DHT22;6539;49.476;8.484;2023-07-09T01:16:18;23.90;99.90
12948;DHT22;6539;49.476;8.484;2023-07-09T01:19:09;23.90;99.90
12948;DHT22;6539;49.476;8.484;2023-07-09T01:21:56;23.80;99.90
12948;DHT22;6539;49.476;8.484;2023-07-09T01:24:58;23.90;99.90
12948;DHT22;6539;49.476;8.484;2023-07-09T01:27:50;23.90;99.90
12948;DHT22;6539;49.476;8.484;2023-07-09T01:30:40;23.90;99.90
12948;DHT22;6539;49.476;8.484;2023-07-09T01:33:26;23.90;99.90
12948;DHT22;6539;49.476;8.484;2023-07-09T01:36:15;24.00;99.90
12948;DHT22;6539;49.476;8.484;2023-07-09T01:39:03;24.00;99.90
12948;DHT22;6539;49.476;8.484;2023-07-09T01:41:52;24.00;99.90
12948;DHT22;6539;49.476;8.484;2023-07-09T01:44:38;24.10;99.90
12948;DHT22;6539;49.476;8.484;2023-07-09T01:47:24;24.10;99.90
12948;DHT22;6539;49.476;8.484;2023-07-09T01:50:11;24.30;99.90
12948;DHT22;6539;49.476;8.484;2023-07-09T01:53:04;24.40;99.90
12948;DHT22;6539;49.476;8.484;2023-07-09T01:55:51;24.30;99.90
12948;DHT22;6539;49.476;8.484;2023-07-09T01:58:40;24.30;99.90
12948;DHT22;6539;49.476;8.484;2023-07-09T02:01:30;24.20;99.90
12948;DHT22;6539;49.476;8.484;2023-07-09T02:04:19;24.10;99.90
12948;DHT22;6539;49.476;8.484;2023-07-09T02:07:05;23.90;99.90
12948;DHT22;6539;49.476;8.484;2023-07-09T02:09:52;23.90;99.90
12948;DHT22;6539;49.476;8.484;2023-07-09T02:12:38;23.80;99.90
12948;DHT22;6539;49.476;8.484;2023-07-09T02:15:24;23.80;99.90
12948;DHT22;6539;49.476;8.484;2023-07-09T02:18:11;23.70;99.90
12948;DHT22;6539;49.476;8.484;2023-07-09T02:20:57;23.90;99.90
12948;DHT22;6539;49.476;8.484;2023-07-09T02:23:46;24.00;99.90
12948;DHT22;6539;49.476;8.484;2023-07-09T02:26:38;24.00;99.90
12948;DHT22;6539;49.476;8.484;2023-07-09T02:29:24;24.00;99.90
12948;DHT22;6539;49.476;8.484;2023-07-09T02:32:18;24.00;99.90
12948;DHT22;6539;49.476;8.484;2023-07-09T02:35:13;24.00;99.90
12948;DHT22;6539;49.476;8.484;2023-07-09T02:38:02;24.00;99.90
12948;DHT22;6539;49.476;8.484;2023-07-09T02:40:51;23.90;99.90
12948;DHT22;6539;49.476;8.484;2023-07-09T02:43:41;24.00;99.90
12948;DHT22;6539;49.476;8.484;2023-07-09T02:46:27;23.90;99.90
12948;DHT22;6539;49.476;8.484;2023-07-09T02:49:14;23.90;99.90
12948;DHT22;6539;49.476;8.484;2023-07-09T02:52:00;23.80;99.90
12948;DHT22;6539;49.476;8.484;2023-07-09T02:54:47;23.70;99.90
12948;DHT22;6539;49.476;8.484;2023-07-09T02:57:33;23.70;99.90
12948;DHT22;6539;49.476;8.484;2023-07-09T03:00:19;23.60;99.90
12948;DHT22;6539;49.476;8.484;2023-07-09T03:03:05;23.60;99.90
12948;DHT22;6539;49.476;8.484;2023-07-09T03:05:53;23.50;99.90
12948;DHT22;6539;49.476;8.484;2023-07-09T03:08:39;23.40;99.90
12948;DHT22;6539;49.476;8.484;2023-07-09T03:11:25;23.40;99.90
12948;DHT22;6539;49.476;8.484;2023-07-09T03:14:17;23.30;99.90
12948;DHT22;6539;49.476;8.484;2023-07-09T03:17:03;23.30;99.90
12948;DHT22;6539;49.476;8.484;2023-07-09T03:19:49;23.20;99.90
12948;DHT22;6539;49.476;8.484;2023-07-09T03:22:38;23.20;99.90
12948;DHT22;6539;49.476;8.484;2023-07-09T03:25:24;23.10;99.90
12948;DHT22;6539;49.476;8.484;2023-07-09T03:28:11;23.00;99.90
12948;DHT22;6539;49.476;8.484;2023-07-09T03:31:00;22.90;99.90
12948;DHT22;6539;49.476;8.484;2023-07-09T03:33:47;22.80;99.90
12948;DHT22;6539;49.476;8.484;2023-07-09T03:36:33;22.80;99.90
12948;DHT22;6539;49.476;8.484;2023-07-09T03:39:20;22.80;99.90
12948;DHT22;6539;49.476;8.484;2023-07-09T03:42:09;22.70;99.90
12948;DHT22;6539;49.476;8.484;2023-07-09T03:44:57;22.70;99.90
12948;DHT22;6539;49.476;8.484;2023-07-09T03:47:43;22.70;99.90
12948;DHT22;6539;49.476;8.484;2023-07-09T03:50:29;22.70;99.90
12948;DHT22;6539;49.476;8.484;2023-07-09T03:53:18;22.70;99.90
12948;DHT22;6539;49.476;8.484;2023-07-09T03:56:07;22.70;99.90
12948;DHT22;6539;49.476;8.484;2023-07-09T03:58:58;22.60;99.90
12948;DHT22;6539;49.476;8.484;2023-07-09T04:01:46;22.70;99.90
12948;DHT22;6539;49.476;8.484;2023-07-09T04:04:35;22.70;99.90
12948;DHT22;6539;49.476;8.484;2023-07-09T04:07:23;22.70;99.90
12948;DHT22;6539;49.476;8.484;2023-07-09T04:10:10;22.80;99.90
12948;DHT22;6539;49.476;8.484;2023-07-09T04:12:56;22.90;99.90
12948;DHT22;6539;49.476;8.484;2023-07-09T04:15:43;22.90;99.90
12948;DHT22;6539;49.476;8.484;2023-07-09T04:18:35;22.90;99.90
12948;DHT22;6539;49.476;8.484;2023-07-09T04:21:21;22.90;99.90
12948;DHT22;6539;49.476;8.484;2023-07-09T04:24:10;22.90;99.90
12948;DHT22;6539;49.476;8.484;2023-07-09T04:26:56;23.00;99.90
12948;DHT22;6539;49.476;8.484;2023-07-09T04:29:42;23.00;99.90
12948;DHT22;6539;49.476;8.484;2023-07-09T04:32:28;23.10;99.90
12948;DHT22;6539;49.476;8.484;2023-07-09T04:35:19;23.10;99.90
12948;DHT22;6539;49.476;8.484;2023-07-09T04:38:05;23.20;99.90
12948;DHT22;6539;49.476;8.484;2023-07-09T04:40:51;23.20;99.90
12948;DHT22;6539;49.476;8.484;2023-07-09T04:43:39;23.10;99.90
12948;DHT22;6539;49.476;8.484;2023-07-09T04:46:27;23.10;99.90
12948;DHT22;6539;49.476;8.484;2023-07-09T04:49:16;23.20;99.90
12948;DHT22;6539;49.476;8.484;2023-07-09T04:52:08;23.20;99.90
12948;DHT22;6539;49.476;8.484;2023-07-09T04:54:57;23.10;99.90
12948;DHT22;6539;49.476;8.484;2023-07-09T04:57:43;23.20;99.90
12948;DHT22;6539;49.476;8.484;2023-07-09T05:00:29;23.30;99.90
12948;DHT22;6539;49.476;8.484;2023-07-09T05:03:15;23.30;99.90
12948;DHT22;6539;49.476;8.484;2023-07-09T05:06:06;23.30;99.90
12948;DHT22;6539;49.476;8.484;2023-07-09T05:08:52;23.20;99.90
12948;DHT22;6539;49.476;8.484;2023-07-09T05:11:38;23.10;99.90
12948;DHT22;6539;49.476;8.484;2023-07-09T05:14:28;23.10;99.90
12948;DHT22;6539;49.476;8.484;2023-07-09T05:17:14;23.10;99.90
12948;DHT22;6539;49.476;8.484;2023-07-09T05:20:03;23.20;99.90
12948;DHT22;6539;49.476;8.484;2023-07-09T05:22:50;23.20;99.90
12948;DHT22;6539;49.476;8.484;2023-07-09T05:25:37;23.30;99.90
12948;DHT22;6539;49.476;8.484;2023-07-09T05:28:23;23.40;99.90
12948;DHT22;6539;49.476;8.484;2023-07-09T05:31:09;23.50;99.90
12948;DHT22;6539;49.476;8.484;2023-07-09T05:33:55;23.60;99.90
12948;DHT22;6539;49.476;8.484;2023-07-09T05:36:44;23.60;99.90
12948;DHT22;6539;49.476;8.484;2023-07-09T05:39:30;23.80;99.90
12948;DHT22;6539;49.476;8.484;2023-07-09T05:42:18;24.00;99.90
12948;DHT22;6539;49.476;8.484;2023-07-09T05:45:05;24.10;99.90
12948;DHT22;6539;49.476;8.484;2023-07-09T05:47:51;24.30;99.90
12948;DHT22;6539;49.476;8.484;2023-07-09T05:50:37;24.30;99.90
12948;DHT22;6539;49.476;8.484;2023-07-09T05:53:24;24.30;99.90
12948;DHT22;6539;49.476;8.484;2023-07-09T05:56:15;24.40;99.90
12948;DHT22;6539;49.476;8.484;2023-07-09T05:59:01;24.40;99.90
12948;DHT22;6539;49.476;8.484;2023-07-09T06:01:50;24.30;99.90
12948;DHT22;6539;49.476;8.484;2023-07-09T06:04:39;24.30;99.90
12948;DHT22;6539;49.476;8.484;2023-07-09T06:07:27;24.30;99.90
12948;DHT22;6539;49.476;8.484;2023-07-09T06:10:14;24.40;99.90
12948;DHT22;6539;49.476;8.484;2023-07-09T06:13:03;24.50;99.90
12948;DHT22;6539;49.476;8.484;2023-07-09T06:15:49;24.50;99.90
12948;DHT22;6539;49.476;8.484;2023-07-09T06:18:38;24.40;99.90
12948;DHT22;6539;49.476;8.484;2023-07-09T06:21:24;24.40;99.90
12948;DHT22;6539;49.476;8.484;2023-07-09T06:24:10;24.50;99.90
12948;DHT22;6539;49.476;8.484;2023-07-09T06:27:01;24.50;99.90
12948;DHT22;6539;49.476;8.484;2023-07-09T06:29:47;24.50;99.90
12948;DHT22;6539;49.476;8.484;2023-07-09T06:32:35;24.70;99.90
12948;DHT22;6539;49.476;8.484;2023-07-09T06:35:24;24.70;99.90
12948;DHT22;6539;49.476;8.484;2023-07-09T06:38:12;24.80;99.90
12948;DHT22;6539;49.476;8.484;2023-07-09T06:40:59;24.90;99.90
12948;DHT22;6539;49.476;8.484;2023-07-09T06:43:47;25.00;99.90
12948;DHT22;6539;49.476;8.484;2023-07-09T06:46:33;25.00;99.90
12948;DHT22;6539;49.476;8.484;2023-07-09T06:49:22;25.00;99.90
12948;DHT22;6539;49.476;8.484;2023-07-09T06:52:08;25.10;99.90
12948;DHT22;6539;49.476;8.484;2023-07-09T06:54:59;25.30;99.90
12948;DHT22;6539;49.476;8.484;2023-07-09T06:57:45;25.30;99.90
12948;DHT22;6539;49.476;8.484;2023-07-09T07:00:32;25.40;99.90
12948;DHT22;6539;49.476;8.484;2023-07-09T07:03:20;25.50;99.90
12948;DHT22;6539;49.476;8.484;2023-07-09T07:06:09;25.60;99.90
12948;DHT22;6539;49.476;8.484;2023-07-09T07:08:55;25.70;99.90
12948;DHT22;6539;49.476;8.484;2023-07-09T07:11:41;25.80;99.90
12948;DHT22;6539;49.476;8.484;2023-07-09T07:14:27;25.90;99.90
12948;DHT22;6539;49.476;8.484;2023-07-09T07:17:16;26.00;99.90
12948;DHT22;6539;49.476;8.484;2023-07-09T07:20:03;26.00;99.90
12948;DHT22;6539;49.476;8.484;2023-07-09T07:22:51;26.10;99.90
12948;DHT22;6539;49.476;8.484;2023-07-09T07:25:37;26.20;99.90
12948;DHT22;6539;49.476;8.484;2023-07-09T07:28:27;26.20;99.90
12948;DHT22;6539;49.476;8.484;2023-07-09T07:31:13;26.20;99.90
12948;DHT22;6539;49.476;8.484;2023-07-09T07:34:01;26.40;99.90
12948;DHT22;6539;49.476;8.484;2023-07-09T07:36:52;26.50;99.90
12948;DHT22;6539;49.476;8.484;2023-07-09T07:39:38;26.60;99.90
12948;DHT22;6539;49.476;8.484;2023-07-09T07:42:24;26.80;99.90
12948;DHT22;6539;49.476;8.484;2023-07-09T07:45:10;26.80;99.90
12948;DHT22;6539;49.476;8.484;2023-07-09T07:47:59;26.80;99.90
12948;DHT22;6539;49.476;8.484;2023-07-09T07:50:46;26.90;99.90
12948;DHT22;6539;49.476;8.484;2023-07-09T07:53:33;27.10;99.90
12948;DHT22;6539;49.476;8.484;2023-07-09T07:56:19;27.30;99.90
12948;DHT22;6539;49.476;8.484;2023-07-09T07:59:07;27.40;99.90
12948;DHT22;6539;49.476;8.484;2023-07-09T08:01:54;27.40;99.90
12948;DHT22;6539;49.476;8.484;2023-07-09T08:04:41;27.60;99.90
12948;DHT22;6539;49.476;8.484;2023-07-09T08:07:30;27.60;99.90
12948;DHT22;6539;49.476;8.484;2023-07-09T08:10:18;27.70;99.90
12948;DHT22;6539;49.476;8.484;2023-07-09T08:13:04;27.90;99.90
12948;DHT22;6539;49.476;8.484;2023-07-09T08:15:52;27.90;99.90
12948;DHT22;6539;49.476;8.484;2023-07-09T08:18:38;28.00;99.90
12948;DHT22;6539;49.476;8.484;2023-07-09T08:21:24;28.00;99.90
12948;DHT22;6539;49.476;8.484;2023-07-09T08:24:12;28.00;99.90
12948;DHT22;6539;49.476;8.484;2023-07-09T08:26:59;28.20;99.90
12948;DHT22;6539;49.476;8.484;2023-07-09T08:29:53;28.20;99.90
12948;DHT22;6539;49.476;8.484;2023-07-09T08:32:42;28.30;99.90
12948;DHT22;6539;49.476;8.484;2023-07-09T08:35:30;28.40;99.90
12948;DHT22;6539;49.476;8.484;2023-07-09T08:38:18;28.50;99.90
12948;DHT22;6539;49.476;8.484;2023-07-09T08:44:15;28.50;99.90
12948;DHT22;6539;49.476;8.484;2023-07-09T08:47:29;28.50;99.90
12948;DHT22;6539;49.476;8.484;2023-07-09T08:50:39;28.60;99.90
12948;DHT22;6539;49.476;8.484;2023-07-09T08:53:33;28.70;99.90
12948;DHT22;6539;49.476;8.484;2023-07-09T08:56:27;28.80;99.90
12948;DHT22;6539;49.476;8.484;2023-07-09T08:59:17;28.80;99.90
12948;DHT22;6539;49.476;8.484;2023-07-09T09:02:16;28.90;99.90
12948;DHT22;6539;49.476;8.484;2023-07-09T09:05:17;29.00;99.90
12948;DHT22;6539;49.476;8.484;2023-07-09T09:08:39;29.10;99.90
12948;DHT22;6539;49.476;8.484;2023-07-09T09:14:35;29.10;99.90
12948;DHT22;6539;49.476;8.484;2023-07-09T09:17:25;29.20;99.90
12948;DHT22;6539;49.476;8.484;2023-07-09T09:20:21;29.50;99.90
12948;DHT22;6539;49.476;8.484;2023-07-09T09:25:55;29.40;99.90
12948;DHT22;6539;49.476;8.484;2023-07-09T09:28:47;29.50;99.90
12948;DHT22;6539;49.476;8.484;2023-07-09T09:31:36;29.60;99.90
12948;DHT22;6539;49.476;8.484;2023-07-09T09:34:28;29.70;99.90
12948;DHT22;6539;49.476;8.484;2023-07-09T09:37:30;29.90;99.90
12948;DHT22;6539;49.476;8.484;2023-07-09T09:40:21;30.00;99.90
12948;DHT22;6539;49.476;8.484;2023-07-09T09:43:16;30.00;99.90
12948;DHT22;6539;49.476;8.484;2023-07-09T09:46:06;30.10;99.90
12948;DHT22;6539;49.476;8.484;2023-07-09T09:49:01;30.20;99.90
12948;DHT22;6539;49.476;8.484;2023-07-09T09:51:49;30.30;99.90
12948;DHT22;6539;49.476;8.484;2023-07-09T09:54:41;30.40;99.90
12948;DHT22;6539;49.476;8.484;2023-07-09T09:57:32;30.50;99.90
12948;DHT22;6539;49.476;8.484;2023-07-09T10:00:19;30.50;99.90
12948;DHT22;6539;49.476;8.484;2023-07-09T10:03:10;30.60;99.90
12948;DHT22;6539;49.476;8.484;2023-07-09T10:05:59;30.70;99.90
12948;DHT22;6539;49.476;8.484;2023-07-09T10:09:05;30.80;99.90
12948;DHT22;6539;49.476;8.484;2023-07-09T10:25:11;31.30;99.90
12948;DHT22;6539;49.476;8.484;2023-07-09T10:34:17;31.60;99.90
12948;DHT22;6539;49.476;8.484;2023-07-09T10:40:39;32.20;97.60
12948;DHT22;6539;49.476;8.484;2023-07-09T10:44:01;32.60;97.30
12948;DHT22;6539;49.476;8.484;2023-07-09T10:47:00;32.70;96.00
12948;DHT22;6539;49.476;8.484;2023-07-09T10:49:52;33.00;95.60
12948;DHT22;6539;49.476;8.484;2023-07-09T10:52:42;33.10;93.80
12948;DHT22;6539;49.476;8.484;2023-07-09T10:55:42;33.60;92.50
12948;DHT22;6539;49.476;8.484;2023-07-09T11:01:39;34.70;91.40
12948;DHT22;6539;49.476;8.484;2023-07-09T11:04:37;34.40;90.90
12948;DHT22;6539;49.476;8.484;2023-07-09T11:07:36;35.00;89.00
12948;DHT22;6539;49.476;8.484;2023-07-09T11:10:36;35.20;88.90
12948;DHT22;6539;49.476;8.484;2023-07-09T11:13:48;35.40;86.80
12948;DHT22;6539;49.476;8.484;2023-07-09T11:16:38;35.10;86.00
12948;DHT22;6539;49.476;8.484;2023-07-09T11:19:29;35.10;85.00
12948;DHT22;6539;49.476;8.484;2023-07-09T11:22:21;34.90;84.60
12948;DHT22;6539;49.476;8.484;2023-07-09T11:25:13;35.10;83.90
12948;DHT22;6539;49.476;8.484;2023-07-09T11:28:12;35.30;83.20
12948;DHT22;6539;49.476;8.484;2023-07-09T11:31:08;35.70;82.40
12948;DHT22;6539;49.476;8.484;2023-07-09T11:34:09;36.30;80.40
12948;DHT22;6539;49.476;8.484;2023-07-09T11:37:11;37.00;77.40
12948;DHT22;6539;49.476;8.484;2023-07-09T11:40:11;37.40;75.00
12948;DHT22;6539;49.476;8.484;2023-07-09T11:42:59;37.20;72.10
12948;DHT22;6539;49.476;8.484;2023-07-09T11:45:47;37.00;72.30
12948;DHT22;6539;49.476;8.484;2023-07-09T11:48:37;37.20;70.30
12948;DHT22;6539;49.476;8.484;2023-07-09T11:51:50;37.00;67.80
12948;DHT22;6539;49.476;8.484;2023-07-09T11:54:45;37.40;67.70
12948;DHT22;6539;49.476;8.484;2023-07-09T11:57:31;37.90;66.70
12948;DHT22;6539;49.476;8.484;2023-07-09T12:00:20;37.70;66.30
12948;DHT22;6539;49.476;8.484;2023-07-09T12:03:09;37.70;65.40
12948;DHT22;6539;49.476;8.484;2023-07-09T12:06:05;37.60;65.30
12948;DHT22;6539;49.476;8.484;2023-07-09T12:09:02;38.20;63.80
12948;DHT22;6539;49.476;8.484;2023-07-09T12:11:51;38.40;62.60
12948;DHT22;6539;49.476;8.484;2023-07-09T12:14:39;38.70;60.60
12948;DHT22;6539;49.476;8.484;2023-07-09T12:17:30;38.40;60.90
12948;DHT22;6539;49.476;8.484;2023-07-09T12:20:18;38.70;60.10
12948;DHT22;6539;49.476;8.484;2023-07-09T12:23:30;38.50;60.50
12948;DHT22;6539;49.476;8.484;2023-07-09T12:26:19;38.10;61.50
12948;DHT22;6539;49.476;8.484;2023-07-09T12:29:09;38.30;61.00
12948;DHT22;6539;49.476;8.484;2023-07-09T12:32:02;38.30;60.90
12948;DHT22;6539;49.476;8.484;2023-07-09T12:34:54;38.80;59.70
12948;DHT22;6539;49.476;8.484;2023-07-09T12:37:43;39.30;59.30
12948;DHT22;6539;49.476;8.484;2023-07-09T12:40:30;39.70;58.10
12948;DHT22;6539;49.476;8.484;2023-07-09T12:43:29;40.10;57.20
12948;DHT22;6539;49.476;8.484;2023-07-09T12:46:17;40.50;56.20
12948;DHT22;6539;49.476;8.484;2023-07-09T12:49:06;40.10;55.80
12948;DHT22;6539;49.476;8.484;2023-07-09T12:52:23;39.90;55.90
12948;DHT22;6539;49.476;8.484;2023-07-09T12:55:20;39.40;55.60
12948;DHT22;6539;49.476;8.484;2023-07-09T12:58:25;38.90;56.20
12948;DHT22;6539;49.476;8.484;2023-07-09T13:01:17;38.90;55.80
12948;DHT22;6539;49.476;8.484;2023-07-09T13:04:03;38.90;55.60
12948;DHT22;6539;49.476;8.484;2023-07-09T13:06:52;39.10;55.80
12948;DHT22;6539;49.476;8.484;2023-07-09T13:09:50;39.60;54.80
12948;DHT22;6539;49.476;8.484;2023-07-09T13:12:39;39.60;54.00
12948;DHT22;6539;49.476;8.484;2023-07-09T13:15:42;39.80;52.90
12948;DHT22;6539;49.476;8.484;2023-07-09T13:18:30;40.20;52.20
12948;DHT22;6539;49.476;8.484;2023-07-09T13:21:19;39.90;50.70
12948;DHT22;6539;49.476;8.484;2023-07-09T13:24:24;39.50;51.40
12948;DHT22;6539;49.476;8.484;2023-07-09T13:27:12;39.40;51.10
12948;DHT22;6539;49.476;8.484;2023-07-09T13:30:02;39.90;50.40
12948;DHT22;6539;49.476;8.484;2023-07-09T13:32:51;39.80;49.80
12948;DHT22;6539;49.476;8.484;2023-07-09T13:35:37;40.60;49.60
12948;DHT22;6539;49.476;8.484;2023-07-09T13:38:24;41.20;48.20
12948;DHT22;6539;49.476;8.484;2023-07-09T13:41:16;40.80;48.50
12948;DHT22;6539;49.476;8.484;2023-07-09T13:44:16;41.20;47.60
12948;DHT22;6539;49.476;8.484;2023-07-09T13:47:19;41.50;47.00
12948;DHT22;6539;49.476;8.484;2023-07-09T13:50:05;41.50;48.00
12948;DHT22;6539;49.476;8.484;2023-07-09T13:52:54;41.20;46.30
12948;DHT22;6539;49.476;8.484;2023-07-09T13:55:40;40.00;46.60
12948;DHT22;6539;49.476;8.484;2023-07-09T13:58:27;39.60;47.50
12948;DHT22;6539;49.476;8.484;2023-07-09T14:01:23;39.30;46.90
12948;DHT22;6539;49.476;8.484;2023-07-09T14:04:12;38.60;47.40
12948;DHT22;6539;49.476;8.484;2023-07-09T14:07:00;38.10;48.10
12948;DHT22;6539;49.476;8.484;2023-07-09T14:09:46;38.00;48.80
12948;DHT22;6539;49.476;8.484;2023-07-09T14:12:32;37.80;48.80
12948;DHT22;6539;49.476;8.484;2023-07-09T14:15:20;37.30;48.90
12948;DHT22;6539;49.476;8.484;2023-07-09T14:18:12;37.30;49.50
12948;DHT22;6539;49.476;8.484;2023-07-09T14:21:05;37.40;49.70
12948;DHT22;6539;49.476;8.484;2023-07-09T14:23:58;37.40;49.80
12948;DHT22;6539;49.476;8.484;2023-07-09T14:26:47;37.30;49.40
12948;DHT22;6539;49.476;8.484;2023-07-09T14:29:36;37.20;49.20
12948;DHT22;6539;49.476;8.484;2023-07-09T14:32:37;37.10;49.50
12948;DHT22;6539;49.476;8.484;2023-07-09T14:35:24;37.10;49.10
12948;DHT22;6539;49.476;8.484;2023-07-09T14:38:21;37.30;48.60
12948;DHT22;6539;49.476;8.484;2023-07-09T14:41:19;37.40;48.20
12948;DHT22;6539;49.476;8.484;2023-07-09T14:44:29;37.70;48.60
12948;DHT22;6539;49.476;8.484;2023-07-09T14:47:19;37.90;48.10
12948;DHT22;6539;49.476;8.484;2023-07-09T14:50:07;38.00;47.90
12948;DHT22;6539;49.476;8.484;2023-07-09T14:52:55;38.00;47.50
12948;DHT22;6539;49.476;8.484;2023-07-09T14:55:42;38.30;47.80
12948;DHT22;6539;49.476;8.484;2023-07-09T14:58:30;38.50;47.80
12948;DHT22;6539;49.476;8.484;2023-07-09T15:01:24;38.90;47.60
12948;DHT22;6539;49.476;8.484;2023-07-09T15:07:07;38.90;46.70
12948;DHT22;6539;49.476;8.484;2023-07-09T15:09:54;38.60;46.40
12948;DHT22;6539;49.476;8.484;2023-07-09T15:12:41;38.40;46.70
12948;DHT22;6539;49.476;8.484;2023-07-09T15:15:31;38.60;47.90
12948;DHT22;6539;49.476;8.484;2023-07-09T15:18:17;38.90;46.90
12948;DHT22;6539;49.476;8.484;2023-07-09T15:21:04;38.60;47.40
12948;DHT22;6539;49.476;8.484;2023-07-09T15:23:55;38.30;47.10
12948;DHT22;6539;49.476;8.484;2023-07-09T15:26:41;38.00;47.10
12948;DHT22;6539;49.476;8.484;2023-07-09T15:29:28;38.40;46.80
12948;DHT22;6539;49.476;8.484;2023-07-09T15:32:16;39.10;46.90
12948;DHT22;6539;49.476;8.484;2023-07-09T15:35:04;39.50;44.30
12948;DHT22;6539;49.476;8.484;2023-07-09T15:37:51;39.30;43.30
12948;DHT22;6539;49.476;8.484;2023-07-09T15:40:37;39.20;43.80
12948;DHT22;6539;49.476;8.484;2023-07-09T15:43:28;39.80;43.60
12948;DHT22;6539;49.476;8.484;2023-07-09T15:46:21;39.70;43.40
12948;DHT22;6539;49.476;8.484;2023-07-09T15:49:11;39.00;42.70
12948;DHT22;6539;49.476;8.484;2023-07-09T15:51:58;38.30;44.30
12948;DHT22;6539;49.476;8.484;2023-07-09T15:54:44;38.20;44.30
12948;DHT22;6539;49.476;8.484;2023-07-09T15:57:30;38.40;44.10
12948;DHT22;6539;49.476;8.484;2023-07-09T16:00:20;38.30;44.10
12948;DHT22;6539;49.476;8.484;2023-07-09T16:03:08;38.20;44.30
12948;DHT22;6539;49.476;8.484;2023-07-09T16:05:57;37.90;44.90
12948;DHT22;6539;49.476;8.484;2023-07-09T16:08:43;37.60;44.40
12948;DHT22;6539;49.476;8.484;2023-07-09T16:11:34;37.30;44.80
12948;DHT22;6539;49.476;8.484;2023-07-09T16:14:33;37.40;45.50
12948;DHT22;6539;49.476;8.484;2023-07-09T16:17:19;37.20;45.60
12948;DHT22;6539;49.476;8.484;2023-07-09T16:20:07;37.10;46.20
12948;DHT22;6539;49.476;8.484;2023-07-09T16:22:58;36.80;46.20
12948;DHT22;6539;49.476;8.484;2023-07-09T16:25:44;36.60;46.70
12948;DHT22;6539;49.476;8.484;2023-07-09T16:28:31;36.70;45.80
12948;DHT22;6539;49.476;8.484;2023-07-09T16:31:22;36.80;46.50
12948;DHT22;6539;49.476;8.484;2023-07-09T16:34:08;36.80;45.50
12948;DHT22;6539;49.476;8.484;2023-07-09T16:36:57;36.80;45.90
12948;DHT22;6539;49.476;8.484;2023-07-09T16:39:45;36.70;47.30
12948;DHT22;6539;49.476;8.484;2023-07-09T16:42:33;36.60;45.60
12948;DHT22;6539;49.476;8.484;2023-07-09T16:45:23;36.50;45.20
12948;DHT22;6539;49.476;8.484;2023-07-09T16:48:16;36.20;46.00
12948;DHT22;6539;49.476;8.484;2023-07-09T16:51:03;36.10;47.20
12948;DHT22;6539;49.476;8.484;2023-07-09T16:53:49;36.00;47.10
12948;DHT22;6539;49.476;8.484;2023-07-09T16:56:35;35.90;46.00
12948;DHT22;6539;49.476;8.484;2023-07-09T16:59:21;35.90;47.30
12948;DHT22;6539;49.476;8.484;2023-07-09T17:02:29;35.80;46.70
12948;DHT22;6539;49.476;8.484;2023-07-09T17:05:17;35.70;47.80
12948;DHT22;6539;49.476;8.484;2023-07-09T17:08:03;35.50;47.30
12948;DHT22;6539;49.476;8.484;2023-07-09T17:10:49;35.40;47.50
12948;DHT22;6539;49.476;8.484;2023-07-09T17:13:36;35.30;49.20
12948;DHT22;6539;49.476;8.484;2023-07-09T17:16:24;35.10;47.50
12948;DHT22;6539;49.476;8.484;2023-07-09T17:19:11;35.20;47.20
12948;DHT22;6539;49.476;8.484;2023-07-09T17:21:58;35.20;48.10
12948;DHT22;6539;49.476;8.484;2023-07-09T17:24:47;35.30;48.70
12948;DHT22;6539;49.476;8.484;2023-07-09T17:27:34;35.30;48.40
12948;DHT22;6539;49.476;8.484;2023-07-09T17:30:26;35.30;48.00
12948;DHT22;6539;49.476;8.484;2023-07-09T17:33:17;35.30;48.00
12948;DHT22;6539;49.476;8.484;2023-07-09T17:38:59;35.20;48.60
12948;DHT22;6539;49.476;8.484;2023-07-09T17:41:48;35.30;48.70
12948;DHT22;6539;49.476;8.484;2023-07-09T17:44:40;35.30;48.90
12948;DHT22;6539;49.476;8.484;2023-07-09T17:47:26;35.20;48.50
12948;DHT22;6539;49.476;8.484;2023-07-09T17:50:17;35.10;49.60
12948;DHT22;6539;49.476;8.484;2023-07-09T17:53:15;35.10;50.50
12948;DHT22;6539;49.476;8.484;2023-07-09T17:56:18;35.00;51.10
12948;DHT22;6539;49.476;8.484;2023-07-09T17:59:12;34.90;52.20
12948;DHT22;6539;49.476;8.484;2023-07-09T18:02:14;34.90;52.60
12948;DHT22;6539;49.476;8.484;2023-07-09T18:05:29;34.80;53.30
12948;DHT22;6539;49.476;8.484;2023-07-09T18:08:17;34.70;53.90
12948;DHT22;6539;49.476;8.484;2023-07-09T18:11:03;34.60;54.80
12948;DHT22;6539;49.476;8.484;2023-07-09T18:13:50;34.30;56.20
12948;DHT22;6539;49.476;8.484;2023-07-09T18:16:36;34.20;57.40
12948;DHT22;6539;49.476;8.484;2023-07-09T18:19:26;34.00;58.10
12948;DHT22;6539;49.476;8.484;2023-07-09T18:22:18;33.80;59.50
12948;DHT22;6539;49.476;8.484;2023-07-09T18:25:08;33.60;60.50
12948;DHT22;6539;49.476;8.484;2023-07-09T18:27:59;33.40;62.00
12948;DHT22;6539;49.476;8.484;2023-07-09T18:30:47;33.10;62.50
12948;DHT22;6539;49.476;8.484;2023-07-09T18:33:40;32.90;63.60
12948;DHT22;6539;49.476;8.484;2023-07-09T18:36:26;32.70;64.70
12948;DHT22;6539;49.476;8.484;2023-07-09T18:39:12;32.60;65.80
12948;DHT22;6539;49.476;8.484;2023-07-09T18:41:58;32.40;66.70
12948;DHT22;6539;49.476;8.484;2023-07-09T18:44:45;32.20;67.50
12948;DHT22;6539;49.476;8.484;2023-07-09T18:47:34;32.10;68.30
12948;DHT22;6539;49.476;8.484;2023-07-09T18:50:27;32.00;69.20
12948;DHT22;6539;49.476;8.484;2023-07-09T18:53:15;31.90;69.90
12948;DHT22;6539;49.476;8.484;2023-07-09T18:56:03;31.80;70.90
12948;DHT22;6539;49.476;8.484;2023-07-09T18:58:52;31.70;71.50